Time;durP1;ratioP1;P1;durP2;ratioP2;P2;SDS_P1;SDS_P2;PMS_P1;PMS_P2;Temp;Humidity;BMP_temperature;BMP_pressure;BME280_temperature;BME280_humidity;BME280_pressure;Samples;Min_cycle;Max_cycle;Signal;HPM_P1;HPM_P2
2023/05/27 00:02:23;;;;;;;16.67;10.38;;;;;;;19.90;60.74;98924.78;5095662;28;20032;-45
2023/05/27 00:04:49;;;;;;;11.07;7.60;;;;;;;19.82;61.48;98933.25;5095583;28;20021;-44
2023/05/27 00:07:15;;;;;;;11.32;8.40;;;;;;;19.74;61.63;98921.19;5077613;28;20448;-44
2023/05/27 00:09:41;;;;;;;12.05;8.40;;;;;;;19.64;62.34;98922.94;5095492;28;20381;-44
2023/05/27 00:12:06;;;;;;;12.88;8.02;;;;;;;19.56;62.33;98926.88;5095461;28;20081;-44
2023/05/27 00:14:32;;;;;;;9.98;7.15;;;;;;;19.51;62.84;98930.28;5094075;28;20064;-44
2023/05/27 00:16:59;;;;;;;13.20;8.23;;;;;;;19.52;63.38;98923.13;5094129;28;20029;-44
2023/05/27 00:19:24;;;;;;;13.38;8.45;;;;;;;19.46;63.57;98932.13;5095283;28;20505;-45
2023/05/27 00:21:52;;;;;;;9.98;8.02;;;;;;;19.35;64.05;98929.34;5095250;28;20111;-44
2023/05/27 00:24:18;;;;;;;15.63;10.32;;;;;;;19.25;64.16;98931.09;5095200;28;20107;-44
2023/05/27 00:26:44;;;;;;;10.93;9.13;;;;;;;19.21;64.21;98933.47;5110977;28;20588;-44
2023/05/27 00:29:10;;;;;;;12.93;11.23;;;;;;;19.15;64.46;98929.13;5076650;28;20134;-44
2023/05/27 00:31:35;;;;;;;11.95;8.25;;;;;;;19.14;64.68;98927.53;5093806;28;20032;-44
2023/05/27 00:34:01;;;;;;;11.07;8.20;;;;;;;19.02;64.95;98929.56;5095097;28;20035;-44
2023/05/27 00:36:27;;;;;;;9.75;8.30;;;;;;;18.86;65.48;98928.56;5095567;28;20031;-44
2023/05/27 00:38:53;;;;;;;17.85;12.15;;;;;;;18.78;66.32;98924.44;5093732;28;20459;-44
2023/05/27 00:41:19;;;;;;;11.05;8.02;;;;;;;18.79;66.31;98923.41;5093719;28;20024;-44
2023/05/27 00:43:45;;;;;;;9.13;7.75;;;;;;;18.88;66.36;98923.81;5094927;28;20027;-44
2023/05/27 00:46:11;;;;;;;17.27;8.85;;;;;;;19.00;66.13;98916.50;5094878;28;20023;-44
2023/05/27 00:48:37;;;;;;;11.48;7.25;;;;;;;19.11;65.58;98922.72;5094773;28;20016;-44
2023/05/27 00:51:03;;;;;;;10.77;8.18;;;;;;;19.12;65.32;98925.13;5093665;28;20563;-44
2023/05/27 00:53:36;;;;;;;14.80;8.02;;;;;;;18.96;65.37;98924.16;5094794;28;20406;-44
2023/05/27 00:56:02;;;;;;;12.90;8.00;;;;;;;18.93;65.53;98921.19;5092603;28;20036;-44
2023/05/27 00:58:28;;;;;;;10.93;8.48;;;;;;;18.92;65.66;98920.38;5093322;28;20032;-44
2023/05/27 01:00:54;;;;;;;12.98;7.65;;;;;;;18.90;65.73;98914.53;5094619;28;20020;-44
2023/05/27 01:03:20;;;;;;;13.70;8.75;;;;;;;18.92;65.62;98909.75;5093207;28;20042;-44
2023/05/27 01:05:46;;;;;;;10.85;7.20;;;;;;;18.93;65.59;98910.53;5094439;28;20490;-44
2023/05/27 01:08:27;;;;;;;11.95;8.07;;;;;;;18.87;65.80;98911.53;5093168;28;20069;-44
2023/05/27 01:10:54;;;;;;;15.27;8.48;;;;;;;18.89;66.14;98912.09;5094411;28;20048;-44
2023/05/27 01:13:27;;;;;;;8.57;7.10;;;;;;;18.94;65.87;98909.50;5094351;28;20548;-44
2023/05/27 01:15:54;;;;;;;15.25;8.07;;;;;;;19.01;65.60;98914.63;5094291;28;20069;-44
2023/05/27 01:18:22;;;;;;;9.90;7.53;;;;;;;19.15;65.31;98907.84;5094260;28;20484;-45
2023/05/27 01:20:51;;;;;;;12.18;8.10;;;;;;;19.16;64.90;98917.47;5094191;28;20022;-45
2023/05/27 01:23:17;;;;;;;13.15;8.80;;;;;;;19.05;64.96;98910.41;5094134;28;20020;-44
2023/05/27 01:25:43;;;;;;;11.10;8.32;;;;;;;18.97;65.34;98909.00;5094299;28;20389;-45
2023/05/27 01:28:08;;;;;;;11.57;7.85;;;;;;;18.96;65.29;98899.44;5092690;28;20089;-44
2023/05/27 01:30:35;;;;;;;13.00;7.85;;;;;;;18.91;65.52;98902.84;5092536;28;20052;-44
2023/05/27 01:33:06;;;;;;;10.32;8.02;;;;;;;18.81;65.78;98905.34;5092587;28;20585;-44
2023/05/27 01:35:35;;;;;;;9.73;8.73;;;;;;;18.73;66.26;98897.78;5093943;28;20107;-44
2023/05/27 01:38:07;;;;;;;18.00;8.77;;;;;;;18.66;66.49;98895.34;5093880;28;20022;-44
2023/05/27 01:40:34;;;;;;;14.32;8.88;;;;;;;18.66;66.59;98900.66;5093864;28;20028;-44
2023/05/27 01:43:00;;;;;;;12.85;8.32;;;;;;;18.66;66.43;98895.34;5093762;28;20016;-45
2023/05/27 01:45:26;;;;;;;12.65;8.52;;;;;;;18.66;66.34;98907.81;5092661;28;20031;-44
2023/05/27 01:47:52;;;;;;;15.15;8.55;;;;;;;18.60;66.72;98900.84;5092358;28;20020;-44
2023/05/27 01:50:18;;;;;;;13.30;8.73;;;;;;;18.53;66.95;98901.84;5092322;28;20074;-44
2023/05/27 01:52:44;;;;;;;12.93;7.80;;;;;;;18.58;66.80;98900.28;5093521;28;20056;-44
2023/05/27 01:55:10;;;;;;;10.65;7.63;;;;;;;18.55;66.73;98902.38;5093486;28;20443;-44
2023/05/27 01:57:36;;;;;;;11.38;8.18;;;;;;;18.42;66.78;98900.09;5093516;28;20024;-44
2023/05/27 02:00:04;;;;;;;15.70;8.55;;;;;;;18.34;67.31;98900.50;5093324;28;20032;-45
2023/05/27 02:02:31;;;;;;;14.48;8.88;;;;;;;18.32;67.63;98891.97;5093638;28;20379;-44
2023/05/27 02:04:57;;;;;;;11.68;8.20;;;;;;;18.30;67.48;98900.19;5093849;28;20028;-44
2023/05/27 02:07:22;;;;;;;9.73;8.15;;;;;;;18.29;67.55;98889.81;5091585;28;20024;-44
2023/05/27 02:09:49;;;;;;;20.35;8.30;;;;;;;18.29;67.91;98898.59;5091564;28;20024;-44
2023/05/27 02:12:15;;;;;;;9.55;8.60;;;;;;;18.43;67.52;98891.06;5091810;28;20027;-44
2023/05/27 02:14:40;;;;;;;9.02;7.93;;;;;;;18.48;66.60;98893.00;5093161;28;20397;-45
2023/05/27 02:17:07;;;;;;;12.52;8.93;;;;;;;18.38;66.76;98884.88;5091730;28;20028;-45
2023/05/27 02:19:33;;;;;;;14.15;9.18;;;;;;;18.31;67.20;98888.53;5092968;28;20024;-44
2023/05/27 02:21:59;;;;;;;13.13;8.50;;;;;;;18.27;67.39;98889.25;5093005;28;20443;-44
2023/05/27 02:24:24;;;;;;;9.90;7.25;;;;;;;18.23;67.52;98885.47;5092951;28;20027;-44
2023/05/27 02:26:50;;;;;;;11.93;9.45;;;;;;;18.20;67.31;98891.28;5091595;28;20032;-44
2023/05/27 02:29:16;;;;;;;14.82;8.90;;;;;;;18.06;67.50;98891.63;5092574;28;20048;-45
2023/05/27 02:31:42;;;;;;;13.13;8.30;;;;;;;18.04;68.19;98896.38;5091527;28;20562;-44
2023/05/27 02:34:07;;;;;;;11.02;8.98;;;;;;;18.11;68.42;98904.16;5092835;28;20020;-44
2023/05/27 02:36:33;;;;;;;11.68;9.13;;;;;;;18.13;68.55;98900.25;5092728;28;20059;-44
2023/05/27 02:38:59;;;;;;;9.40;8.13;;;;;;;18.14;68.72;98899.19;5074545;28;20043;-44
2023/05/27 02:41:26;;;;;;;11.73;9.20;;;;;;;18.14;68.36;98901.84;5092655;28;20027;-44
2023/05/27 02:43:51;;;;;;;12.20;8.20;;;;;;;18.19;68.83;98893.16;5092883;28;20439;-44
2023/05/27 02:46:17;;;;;;;12.80;8.02;;;;;;;18.35;67.93;98900.28;5092600;28;20016;-44
2023/05/27 02:48:43;;;;;;;11.18;7.88;;;;;;;18.32;67.23;98894.63;5091200;28;20078;-44
2023/05/27 02:51:09;;;;;;;10.52;8.45;;;;;;;18.24;67.38;98887.88;5091098;28;20115;-44
2023/05/27 02:53:35;;;;;;;11.88;9.30;;;;;;;18.16;67.46;98902.38;5092762;28;20046;-47
2023/05/27 02:56:00;;;;;;;15.20;8.38;;;;;;;18.07;67.88;98901.22;5092377;28;20023;-47
2023/05/27 02:58:26;;;;;;;11.55;8.68;;;;;;;18.02;68.59;98905.66;5091106;28;20024;-47
2023/05/27 03:00:52;;;;;;;11.73;8.50;;;;;;;17.85;68.77;98901.16;5092599;28;20363;-47
2023/05/27 03:03:18;;;;;;;14.68;9.60;;;;;;;17.76;69.40;98906.00;5092418;28;20115;-47
2023/05/27 03:05:43;;;;;;;11.15;9.05;;;;;;;17.73;69.81;98903.84;5092334;28;20137;-47
2023/05/27 03:08:09;;;;;;;12.65;8.55;;;;;;;17.77;69.19;98907.63;5090857;28;20131;-47
2023/05/27 03:10:35;;;;;;;12.80;8.52;;;;;;;17.84;69.07;98912.81;5092259;28;20485;-47
2023/05/27 03:13:01;;;;;;;11.50;8.98;;;;;;;17.96;68.76;98913.53;5090858;28;20082;-47
2023/05/27 03:15:31;;;;;;;11.52;8.40;;;;;;;18.14;68.88;98915.13;5091102;28;20527;-47
2023/05/27 03:17:57;;;;;;;11.25;8.25;;;;;;;18.21;68.08;98909.66;5092337;28;20371;-47
2023/05/27 03:20:23;;;;;;;14.90;8.20;;;;;;;18.34;67.94;98908.47;5073616;28;20028;-47
2023/05/27 03:22:48;;;;;;;9.30;7.90;;;;;;;18.42;67.42;98909.91;5073920;28;20096;-47
2023/05/27 03:25:14;;;;;;;12.75;8.40;;;;;;;18.49;66.30;98911.34;5091956;28;20024;-47
2023/05/27 03:27:40;;;;;;;10.60;8.32;;;;;;;18.42;65.89;98910.72;5090620;28;20036;-47
2023/05/27 03:30:08;;;;;;;13.25;9.35;;;;;;;18.24;65.98;98913.66;5090343;28;20056;-47
2023/05/27 03:32:34;;;;;;;15.48;9.23;;;;;;;18.02;66.60;98914.41;5091940;28;20064;-47
2023/05/27 03:35:00;;;;;;;12.10;8.57;;;;;;;17.91;67.27;98908.16;5091782;28;20043;-47
2023/05/27 03:37:26;;;;;;;13.55;8.48;;;;;;;17.85;67.43;98913.59;5091833;28;20490;-47
2023/05/27 03:39:51;;;;;;;15.50;9.20;;;;;;;17.81;67.87;98909.78;5090510;28;20042;-47
2023/05/27 03:42:18;;;;;;;14.20;9.20;;;;;;;17.75;67.65;98908.94;5090539;28;20028;-46
2023/05/27 03:44:45;;;;;;;13.40;8.85;;;;;;;17.67;67.94;98915.44;5090430;28;20071;-47
2023/05/27 03:47:10;;;;;;;20.50;8.63;;;;;;;17.60;68.15;98914.00;5091653;28;20020;-47
2023/05/27 03:49:36;;;;;;;17.35;12.18;;;;;;;17.59;68.23;98913.19;5091661;28;20028;-47
2023/05/27 03:52:02;;;;;;;47.42;24.13;;;;;;;17.50;68.43;98910.09;5091787;28;20017;-47
2023/05/27 03:54:29;;;;;;;23.95;15.82;;;;;;;17.33;68.70;98910.09;5091623;28;20020;-47
2023/05/27 03:56:55;;;;;;;15.30;9.80;;;;;;;17.34;69.22;98908.25;5091651;28;20107;-47
2023/05/27 03:59:21;;;;;;;15.98;9.68;;;;;;;17.35;69.20;98917.81;5091694;28;20493;-46
2023/05/27 04:01:47;;;;;;;19.65;10.70;;;;;;;17.31;68.91;98916.69;5090314;28;20059;-47
2023/05/27 04:04:13;;;;;;;15.35;10.98;;;;;;;17.31;69.21;98919.34;5091869;28;20462;-47
2023/05/27 04:06:41;;;;;;;21.67;9.98;;;;;;;17.41;69.46;98926.69;5090401;28;20024;-47
2023/05/27 04:09:07;;;;;;;31.75;10.70;;;;;;;17.51;68.99;98913.59;5090177;28;20521;-47
2023/05/27 04:11:33;;;;;;;24.25;10.52;;;;;;;17.60;68.54;98916.63;5091522;28;20016;-47
2023/05/27 04:13:59;;;;;;;19.55;9.75;;;;;;;17.52;68.39;98910.66;5091541;28;20039;-47
2023/05/27 04:16:24;;;;;;;20.23;9.65;;;;;;;17.47;68.77;98912.47;5090228;28;20170;-47
2023/05/27 04:18:51;;;;;;;17.77;9.40;;;;;;;17.49;68.51;98920.97;5091508;28;20028;-47
2023/05/27 04:21:20;;;;;;;28.90;13.20;;;;;;;17.55;68.31;98914.72;5091723;28;20094;-47
2023/05/27 04:23:46;;;;;;;22.02;11.05;;;;;;;17.67;67.91;98915.44;5091430;28;20493;-46
2023/05/27 04:26:12;;;;;;;25.17;9.68;;;;;;;17.77;67.47;98912.94;5090157;28;20024;-47
2023/05/27 04:28:39;;;;;;;11.38;7.80;;;;;;;18.00;66.72;98921.81;5091357;28;20405;-49
2023/05/27 04:31:05;;;;;;;12.55;8.73;;;;;;;18.36;65.63;98914.34;5091670;28;20027;-47
2023/05/27 04:33:31;;;;;;;16.60;8.35;;;;;;;18.76;64.24;98907.94;5093890;28;20024;-47
2023/05/27 04:35:56;;;;;;;13.77;8.82;;;;;;;19.06;62.97;98912.03;5093750;28;20024;-47
2023/05/27 04:38:22;;;;;;;15.85;9.60;;;;;;;19.44;61.89;98911.06;5095061;28;20016;-47
2023/05/27 04:40:55;;;;;;;17.67;8.60;;;;;;;19.92;60.10;98916.53;5093675;28;20077;-47
2023/05/27 04:43:21;;;;;;;12.52;7.28;;;;;;;20.39;58.93;98920.28;5095033;28;20024;-47
2023/05/27 04:45:47;;;;;;;15.95;8.60;;;;;;;20.70;57.23;98913.25;5076788;28;20077;-47
2023/05/27 04:48:14;;;;;;;13.10;8.85;;;;;;;20.82;56.35;98915.69;5094771;28;20016;-47
2023/05/27 04:50:40;;;;;;;12.15;7.93;;;;;;;20.72;56.44;98917.25;5093448;28;20501;-47
2023/05/27 04:53:07;;;;;;;12.43;7.85;;;;;;;20.68;56.51;98915.38;5094768;28;20020;-47
2023/05/27 04:55:33;;;;;;;15.23;7.90;;;;;;;20.79;56.48;98918.91;5094729;28;20208;-47
2023/05/27 04:57:59;;;;;;;14.25;7.47;;;;;;;21.22;55.78;98914.19;5094690;28;20028;-47
2023/05/27 05:01:16;;;;;;;14.68;8.95;;;;;;;21.84;53.88;98910.53;5093275;28;20085;-47
2023/05/27 05:03:20;;;;;;;16.70;8.98;;;;;;;22.67;51.86;98917.28;5086893;28;20562;-44
2023/05/27 05:05:46;;;;;;;23.85;14.23;;;;;;;23.43;50.25;98915.28;5094517;28;20069;-44
2023/05/27 05:08:12;;;;;;;9.73;7.80;;;;;;;24.13;48.53;98911.50;5093090;28;20287;-44
2023/05/27 05:10:38;;;;;;;12.18;7.63;;;;;;;24.75;46.58;98913.50;5094660;28;20543;-44
2023/05/27 05:13:04;;;;;;;13.52;9.55;;;;;;;25.06;45.06;98911.22;5094394;28;20065;-44
2023/05/27 05:15:31;;;;;;;56.00;50.17;;;;;;;25.49;44.40;98911.94;5093062;28;20111;-45
2023/05/27 05:17:56;;;;;;;124.10;113.22;;;;;;;25.93;43.19;98909.88;5092980;28;20016;-45
2023/05/27 05:20:22;;;;;;;32.97;26.40;;;;;;;26.34;42.01;98911.81;5094214;28;20031;-45
2023/05/27 05:22:48;;;;;;;33.58;16.35;;;;;;;26.59;41.26;98909.75;5094233;28;20375;-45
2023/05/27 05:25:14;;;;;;;17.48;13.05;;;;;;;27.00;40.61;98916.94;5092853;28;20035;-45
2023/05/27 05:27:41;;;;;;;15.93;9.05;;;;;;;27.49;39.91;98915.31;5092795;28;20417;-45
2023/05/27 05:30:08;;;;;;;15.00;7.75;;;;;;;28.02;38.17;98919.16;5093700;28;20040;-45
2023/05/27 05:32:33;;;;;;;10.75;7.93;;;;;;;28.19;37.63;98916.53;5094242;28;20024;-45
2023/05/27 05:34:59;;;;;;;15.73;7.80;;;;;;;28.39;37.35;98917.06;5092602;28;20024;-45
2023/05/27 05:37:25;;;;;;;15.38;7.20;;;;;;;28.13;37.57;98923.19;5092538;28;20447;-45
2023/05/27 05:39:50;;;;;;;14.85;7.60;;;;;;;28.40;36.82;98921.38;5093868;28;20059;-44
2023/05/27 05:42:17;;;;;;;14.25;7.35;;;;;;;28.23;37.34;98922.09;5093499;28;20024;-45
2023/05/27 05:44:42;;;;;;;19.73;8.52;;;;;;;28.48;37.00;98921.38;5092440;28;20059;-45
2023/05/27 05:47:08;;;;;;;25.33;8.63;;;;;;;29.05;36.21;98923.25;5093743;28;20052;-44
2023/05/27 05:49:34;;;;;;;18.00;7.30;;;;;;;29.21;35.56;98918.19;5092257;28;20028;-45
2023/05/27 05:51:59;;;;;;;25.45;8.05;;;;;;;29.48;35.17;98921.72;5093532;28;20024;-45
2023/05/27 05:54:25;;;;;;;11.30;7.32;;;;;;;30.10;34.03;98920.44;5092310;28;20051;-45
2023/05/27 05:56:52;;;;;;;11.63;6.80;;;;;;;30.24;33.96;98918.34;5093490;28;20059;-45
2023/05/27 05:59:18;;;;;;;16.80;6.80;;;;;;;31.00;32.88;98915.88;5092184;28;20032;-45
2023/05/27 06:01:43;;;;;;;11.35;6.20;;;;;;;31.25;31.95;98912.16;5092105;28;20035;-45
2023/05/27 06:04:09;;;;;;;13.23;6.45;;;;;;;31.32;32.10;98910.84;5092067;28;20452;-44
2023/05/27 06:06:35;;;;;;;10.63;6.35;;;;;;;31.72;31.79;98910.31;5093341;28;20021;-44
2023/05/27 06:09:01;;;;;;;16.55;6.88;;;;;;;32.42;30.35;98907.59;5093052;28;20103;-44
2023/05/27 06:11:26;;;;;;;14.65;5.72;;;;;;;33.08;29.38;98897.50;5093198;28;20484;-44
2023/05/27 06:13:52;;;;;;;15.75;6.50;;;;;;;33.46;28.69;98902.47;5091974;28;20516;-45
2023/05/27 06:16:18;;;;;;;10.77;6.15;;;;;;;33.84;27.96;98898.41;5091825;28;20032;-45
2023/05/27 06:18:45;;;;;;;10.88;6.15;;;;;;;34.06;27.07;98898.97;5091786;28;20516;-45
2023/05/27 06:21:12;;;;;;;10.07;6.05;;;;;;;34.38;26.73;98905.97;5092966;28;20474;-44
2023/05/27 06:23:37;;;;;;;13.95;6.10;;;;;;;34.50;26.48;98901.56;5092980;28;20017;-44
2023/05/27 06:26:03;;;;;;;11.75;5.90;;;;;;;34.59;26.41;98904.88;5092960;28;20020;-45
2023/05/27 06:28:29;;;;;;;11.75;6.43;;;;;;;34.60;26.41;98904.53;5092885;28;20028;-44
2023/05/27 06:30:55;;;;;;;10.05;6.65;;;;;;;34.76;26.06;98903.72;5092686;28;20509;-44
2023/05/27 06:33:21;;;;;;;14.18;6.95;;;;;;;34.85;26.08;98903.50;5091539;28;20028;-44
2023/05/27 06:35:47;;;;;;;11.82;5.95;;;;;;;35.19;25.58;98908.16;5092731;28;20398;-45
2023/05/27 06:38:13;;;;;;;14.73;6.35;;;;;;;35.59;24.96;98897.97;5092760;28;20492;-45
2023/05/27 06:40:38;;;;;;;13.98;6.35;;;;;;;35.66;24.98;98897.31;5092662;28;20035;-44
2023/05/27 06:43:04;;;;;;;12.20;6.78;;;;;;;35.85;24.57;98901.97;5091335;28;20024;-44
2023/05/27 06:45:30;;;;;;;16.60;6.00;;;;;;;36.15;24.47;98889.22;5091552;28;20173;-44
2023/05/27 06:47:56;;;;;;;16.20;6.55;;;;;;;36.31;24.52;98891.78;5091229;28;20110;-45
2023/05/27 06:50:22;;;;;;;13.00;6.22;;;;;;;36.53;23.79;98886.63;5092616;28;20115;-44
2023/05/27 06:52:48;;;;;;;15.68;5.93;;;;;;;36.54;23.64;98888.19;5092512;28;20027;-45
2023/05/27 06:55:13;;;;;;;11.95;6.35;;;;;;;36.72;23.44;98892.00;5091832;28;20035;-45
2023/05/27 06:57:39;;;;;;;16.83;9.40;;;;;;;36.96;22.96;98887.22;5092391;28;20034;-45
2023/05/27 07:00:05;;;;;;;23.33;8.57;;;;;;;36.66;23.63;98884.47;5092310;28;20102;-45
2023/05/27 07:02:31;;;;;;;18.38;7.88;;;;;;;36.78;23.71;98885.06;5091247;28;20027;-45
2023/05/27 07:04:57;;;;;;;14.90;8.32;;;;;;;36.89;23.30;98887.13;5092321;28;20035;-45
2023/05/27 07:07:23;;;;;;;24.25;20.95;;;;;;;37.02;23.38;98887.66;5090936;28;20024;-45
2023/05/27 07:09:48;;;;;;;13.70;8.23;;;;;;;37.23;23.03;98884.41;5090778;28;20397;-45
2023/05/27 07:12:14;;;;;;;11.45;7.05;;;;;;;37.24;23.05;98886.00;5092453;28;20099;-45
2023/05/27 07:14:40;;;;;;;11.32;7.25;;;;;;;37.23;23.21;98882.47;5092134;28;20404;-45
2023/05/27 07:17:06;;;;;;;10.07;6.30;;;;;;;37.24;23.02;98878.56;5092059;28;20019;-45
2023/05/27 07:19:32;;;;;;;11.13;7.00;;;;;;;37.17;22.95;98871.06;5092045;28;20063;-45
2023/05/27 07:21:57;;;;;;;16.05;6.65;;;;;;;36.77;22.96;98880.72;5092387;28;20567;-45
2023/05/27 07:24:23;;;;;;;13.48;7.25;;;;;;;35.91;24.16;98879.44;5091957;28;20032;-45
2023/05/27 07:26:49;;;;;;;12.55;6.60;;;;;;;35.50;24.49;98881.84;5090690;28;20401;-45
2023/05/27 07:29:15;;;;;;;12.38;7.13;;;;;;;35.41;24.93;98873.06;5091630;28;20052;-45
2023/05/27 07:31:40;;;;;;;15.45;6.55;;;;;;;35.25;25.63;98875.91;5090615;28;20028;-45
2023/05/27 07:34:06;;;;;;;14.77;6.60;;;;;;;35.26;25.52;98868.53;5091953;28;20028;-45
2023/05/27 07:36:32;;;;;;;11.23;6.45;;;;;;;35.02;25.74;98870.38;5091749;28;20032;-45
2023/05/27 07:38:58;;;;;;;13.02;6.50;;;;;;;35.04;25.81;98873.53;5090554;28;20048;-45
2023/05/27 07:41:24;;;;;;;12.68;6.25;;;;;;;35.09;25.61;98869.72;5090518;28;20510;-45
2023/05/27 07:43:50;;;;;;;14.25;6.40;;;;;;;35.22;25.72;98867.66;5091771;28;20071;-45
2023/05/27 07:46:15;;;;;;;21.25;7.68;;;;;;;35.58;25.01;98867.16;5091791;28;20052;-45
2023/05/27 07:48:41;;;;;;;15.10;7.47;;;;;;;35.98;24.52;98859.66;5092004;28;20028;-45
2023/05/27 07:51:07;;;;;;;13.00;6.10;;;;;;;36.33;24.17;98862.16;5091751;28;20019;-45
2023/05/27 07:53:32;;;;;;;14.45;7.30;;;;;;;36.73;23.83;98851.78;5091740;28;20397;-45
2023/05/27 07:55:58;;;;;;;12.27;5.82;;;;;;;37.18;23.54;98849.97;5091756;28;20505;-45
2023/05/27 07:58:24;;;;;;;10.30;6.57;;;;;;;37.63;22.88;98850.81;5091712;28;20055;-45
2023/05/27 08:00:50;;;;;;;20.77;6.18;;;;;;;37.68;22.26;98855.16;5091738;28;20343;-46
2023/05/27 08:03:15;;;;;;;10.85;6.05;;;;;;;37.71;22.46;98841.50;5090425;28;20550;-45
2023/05/27 08:05:42;;;;;;;17.77;6.75;;;;;;;37.95;22.25;98834.63;5092944;28;20016;-46
2023/05/27 08:08:07;;;;;;;10.90;7.50;;;;;;;38.22;22.04;98841.88;5095656;28;20028;-46
2023/05/27 08:10:33;;;;;;;18.10;7.38;;;;;;;38.76;21.91;98840.22;5095611;28;20146;-48
2023/05/27 08:12:59;;;;;;;9.82;5.85;;;;;;;39.26;21.09;98840.38;5095593;28;20231;-48
2023/05/27 08:15:25;;;;;;;12.43;6.63;;;;;;;39.83;20.35;98830.63;5095742;28;20024;-48
2023/05/27 08:17:51;;;;;;;18.40;6.60;;;;;;;40.21;20.35;98828.22;5095741;28;20035;-48
2023/05/27 08:20:16;;;;;;;17.20;6.35;;;;;;;40.72;19.74;98827.66;5094100;28;20118;-48
2023/05/27 08:22:43;;;;;;;15.75;6.22;;;;;;;41.31;19.17;98827.00;5095320;28;20055;-49
2023/05/27 08:25:09;;;;;;;7.50;5.90;;;;;;;41.97;18.80;98828.03;5095617;28;20103;-48
2023/05/27 08:27:45;;;;;;;12.85;5.95;;;;;;;42.48;18.32;98820.03;5095300;28;20104;-48
2023/05/27 08:30:14;;;;;;;10.55;5.20;;;;;;;42.15;17.94;98811.31;5094884;28;20052;-48
2023/05/27 08:32:41;;;;;;;17.83;6.70;;;;;;;41.69;18.42;98818.06;5095141;28;20534;-48
2023/05/27 08:35:08;;;;;;;10.75;5.60;;;;;;;41.45;18.53;98817.81;5095102;28;20034;-49
2023/05/27 08:38:53;;;;;;;11.13;5.47;;;;;;;41.05;19.04;98820.06;5094984;28;20024;-49
2023/05/27 08:41:01;;;;;;;11.30;5.97;;;;;;;41.52;18.16;98815.03;5092000;28;20039;-49
2023/05/27 08:43:27;;;;;;;8.07;5.45;;;;;;;41.52;17.87;98815.03;5093665;28;20031;-48
2023/05/27 08:45:53;;;;;;;10.05;5.20;;;;;;;41.20;18.27;98812.50;5093604;28;20050;-48
2023/05/27 08:48:30;;;;;;;11.73;5.38;;;;;;;41.12;18.53;98803.47;5093606;28;20028;-48
2023/05/27 08:50:56;;;;;;;11.20;6.15;;;;;;;41.76;18.36;98804.22;5093493;28;20046;-48
2023/05/27 08:53:22;;;;;;;8.88;5.47;;;;;;;41.85;17.70;98801.75;5094823;28;20489;-48
2023/05/27 08:55:51;;;;;;;9.60;5.43;;;;;;;41.52;17.78;98801.25;5094715;28;20024;-48
2023/05/27 08:58:18;;;;;;;12.93;5.90;;;;;;;41.82;17.83;98802.59;5094592;28;20024;-48
2023/05/27 09:00:44;;;;;;;11.13;5.72;;;;;;;41.80;18.11;98795.91;5094602;28;20028;-48
2023/05/27 09:03:10;;;;;;;12.95;5.80;;;;;;;42.07;17.83;98785.03;5093235;28;20406;-48
2023/05/27 09:05:36;;;;;;;9.10;5.57;;;;;;;42.06;18.01;98787.00;5093193;28;20517;-48
2023/05/27 09:08:02;;;;;;;16.50;6.28;;;;;;;42.44;17.44;98781.47;5094428;28;20028;-48
2023/05/27 09:10:39;;;;;;;15.45;6.15;;;;;;;42.56;17.59;98777.38;5094259;28;20024;-48
2023/05/27 09:16:45;;;;;;;12.57;6.63;;;;;;;42.62;16.90;98774.91;5094648;28;20035;-48
2023/05/27 09:19:18;;;;;;;17.40;5.45;;;;;;;42.98;16.77;98783.50;5094112;28;20052;-48
2023/05/27 09:25:16;;;;;;;11.32;5.18;;;;;;;42.82;16.66;98778.59;5094429;28;20084;-48
2023/05/27 09:28:25;;;;;;;8.75;4.60;;;;;;;42.59;16.94;98764.72;5094194;28;20545;-48
2023/05/27 09:30:52;;;;;;;10.80;5.18;;;;;;;42.52;17.12;98768.34;5031232;28;20519;-48
2023/05/27 09:33:26;;;;;;;18.02;5.80;;;;;;;41.70;17.42;98764.50;5014934;28;20036;-48
2023/05/27 09:35:52;;;;;;;10.70;5.88;;;;;;;41.95;17.33;98764.25;5031641;28;20037;-49
2023/05/27 09:38:17;;;;;;;16.90;5.43;;;;;;;42.45;16.92;98765.69;5014855;28;20049;-48
2023/05/27 09:40:47;;;;;;;9.95;5.57;;;;;;;42.47;16.90;98749.50;5031483;28;20561;-48
2023/05/27 09:46:01;;;;;;;14.23;5.32;;;;;;;42.15;17.09;98753.41;5031455;28;20123;-48
2023/05/27 09:48:31;;;;;;;12.13;5.15;;;;;;;42.35;17.05;98752.78;5031400;28;20116;-48
2023/05/27 09:50:57;;;;;;;14.82;5.63;;;;;;;42.30;17.26;98754.81;5014708;28;20124;-48
2023/05/27 09:53:27;;;;;;;18.15;5.57;;;;;;;42.22;17.17;98749.78;5031206;28;20065;-48
2023/05/27 09:55:57;;;;;;;10.52;5.05;;;;;;;42.21;17.08;98748.22;5031176;28;20525;-48
2023/05/27 09:58:27;;;;;;;7.70;4.78;;;;;;;42.29;17.27;98749.69;5031151;28;20586;-49
2023/05/27 10:00:55;;;;;;;18.17;6.28;;;;;;;42.61;16.90;98752.06;5014490;28;20037;-49
2023/05/27 10:03:22;;;;;;;9.88;4.68;;;;;;;42.63;17.10;98744.13;5014464;28;20562;-48
2023/05/27 10:05:50;;;;;;;6.80;5.63;;;;;;;42.25;16.79;98735.94;5088582;28;20059;-48
2023/05/27 10:08:17;;;;;;;8.70;5.07;;;;;;;41.84;17.26;98741.53;5093168;28;20562;-48
2023/05/27 10:10:44;;;;;;;7.22;4.85;;;;;;;41.76;17.32;98743.56;5091936;28;20024;-48
2023/05/27 10:13:13;;;;;;;10.90;5.60;;;;;;;41.72;17.30;98742.84;5091937;28;20032;-48
2023/05/27 10:15:39;;;;;;;12.60;5.63;;;;;;;41.91;17.27;98738.69;5093228;28;20016;-49
2023/05/27 10:18:07;;;;;;;11.32;5.55;;;;;;;42.21;16.90;98739.94;5093189;28;20103;-48
2023/05/27 10:20:37;;;;;;;9.63;5.63;;;;;;;42.05;17.04;98744.06;5092987;28;20028;-48
2023/05/27 10:29:42;;;;;;;7.10;4.78;;;;;;;42.22;17.54;98742.28;5089116;28;20073;-49
2023/05/27 10:35:41;;;;;;;12.00;5.85;;;;;;;42.16;17.51;98727.41;5030427;28;20032;-48
2023/05/27 10:38:17;;;;;;;10.18;5.50;;;;;;;41.61;17.76;98740.16;5013881;28;20503;-49
2023/05/27 10:40:45;;;;;;;14.82;6.25;;;;;;;41.34;18.07;98729.00;5013750;28;20033;-49
2023/05/27 10:43:18;;;;;;;11.57;5.57;;;;;;;41.04;18.38;98727.63;5030309;28;20032;-48
2023/05/27 10:45:45;;;;;;;7.35;5.05;;;;;;;41.30;18.56;98717.22;5030235;28;20559;-49
2023/05/27 10:48:21;;;;;;;18.23;9.88;;;;;;;41.45;18.83;98717.88;5030134;28;20040;-48
2023/05/27 10:51:58;;;;;;;15.50;6.10;;;;;;;41.78;18.42;98716.38;5030215;28;20063;-48
2023/05/27 10:54:16;;;;;;;7.07;5.47;;;;;;;41.97;17.75;98725.22;5028804;28;20128;-48
2023/05/27 10:56:50;;;;;;;11.23;5.47;;;;;;;41.27;18.07;98724.34;5013536;28;20116;-48
2023/05/27 10:59:24;;;;;;;13.73;5.55;;;;;;;41.34;18.40;98723.47;5030040;28;20087;-48
2023/05/27 11:01:53;;;;;;;12.25;5.50;;;;;;;41.44;18.23;98716.31;5029877;28;20045;-48
2023/05/27 11:04:21;;;;;;;86.38;24.65;;;;;;;41.80;18.24;98718.75;5013312;28;20441;-49
2023/05/27 11:06:58;;;;;;;25.40;7.53;;;;;;;42.13;17.88;98717.19;5029888;28;20026;-49
2023/05/27 11:09:24;;;;;;;13.82;5.65;;;;;;;42.43;17.59;98712.88;5029837;28;20155;-49
2023/05/27 11:11:50;;;;;;;16.92;7.85;;;;;;;42.63;18.00;98704.72;5056296;28;20043;-48
2023/05/27 11:17:41;;;;;;;13.20;5.93;;;;;;;42.35;17.60;98701.13;5092483;28;20405;-49
2023/05/27 11:20:08;;;;;;;9.10;5.20;;;;;;;42.41;17.95;98701.47;5090761;28;20055;-48
2023/05/27 11:22:36;;;;;;;11.90;5.90;;;;;;;42.40;17.64;98703.44;5092269;28;20035;-48
2023/05/27 11:31:35;;;;;;;7.50;4.40;;;;;;;42.69;17.31;98692.00;5047410;28;20055;-49
2023/05/27 11:34:01;;;;;;;10.05;4.78;;;;;;;42.01;17.51;98685.38;5049481;28;20434;-49
2023/05/27 11:42:46;;;;;;;8.20;4.30;;;;;;;42.31;17.60;98684.63;5049657;28;20090;-49
2023/05/27 11:45:20;;;;;;;10.65;4.85;;;;;;;42.20;17.52;98683.19;5049306;28;20048;-49
2023/05/27 11:47:50;;;;;;;10.00;4.95;;;;;;;42.02;18.02;98678.72;5049417;28;20033;-49
2023/05/27 11:50:18;;;;;;;7.47;5.00;;;;;;;41.67;18.47;98674.38;5049184;28;20052;-48
2023/05/27 11:52:55;;;;;;;11.43;4.95;;;;;;;41.40;18.22;98669.50;5049275;28;20040;-48
2023/05/27 11:55:56;;;;;;;12.00;4.35;;;;;;;41.44;18.36;98672.22;5049303;28;20033;-49
2023/05/27 11:58:22;;;;;;;10.65;4.78;;;;;;;41.21;18.68;98657.09;5044857;28;20467;-48
2023/05/27 12:00:48;;;;;;;14.45;5.45;;;;;;;41.07;18.64;98659.94;5049264;28;20112;-49
2023/05/27 12:03:20;;;;;;;12.82;4.65;;;;;;;41.01;18.72;98659.63;5049254;28;20053;-48
2023/05/27 12:05:46;;;;;;;9.13;5.13;;;;;;;40.87;18.75;98652.25;5084646;28;20059;-48